Terminal Aerodrome Forecast
Issued by NWS

Home | Current Version | Previous Version | Graphics & Text | Print | Product List | Glossary On
Versions: 1 2 3 4 5 6 7 8 9 10 11 12 13 14 15 16 17 18 19 20 21 22 23 24 25 26
000
FTUS43 KGRB 232300
TAFATW
TAF
KATW 232336Z 2400/2424 14004KT 2SM -RA BR OVC006
      TEMPO 2400/2404 1/2SM -RA FG OVC002
     FM240400 04004KT 3/4SM -RA BR OVC003
     FM240900 31005KT 1/2SM -RA FG OVC002
     FM241400 31009KT 2SM -RA BR OVC009
     FM241800 31012G20KT 4SM -RA OVC011
     FM242200 31012G20KT 2SM -RASN OVC010=

USA.gov is the U.S. government's official web portal to all federal, state and local government web resources and services.